Time;durP1;ratioP1;P1;durP2;ratioP2;P2;SDS_P1;SDS_P2;PMS_P1;PMS_P2;Temp;Humidity;BMP_temperature;BMP_pressure;BME280_temperature;BME280_humidity;BME280_pressure;Samples;Min_cycle;Max_cycle;Signal;HPM_P1;HPM_P2
2023/03/24 00:00:22;;;;;;;14.55;6.10;;;;;;;11.21;100.00;99568.41;5023836;28;20029;-81
2023/03/24 00:03:09;;;;;;;18.05;6.30;;;;;;;11.23;100.00;99553.09;5021875;28;20046;-79
2023/03/24 00:05:36;;;;;;;16.27;6.30;;;;;;;11.22;100.00;99543.41;5021333;28;20038;-80
2023/03/24 00:08:02;;;;;;;13.73;6.55;;;;;;;11.22;100.00;99551.41;5019269;28;20038;-82
2023/03/24 00:10:33;;;;;;;15.63;7.10;;;;;;;11.25;100.00;99553.81;5021212;28;20136;-80
2023/03/24 00:13:00;;;;;;;13.13;5.80;;;;;;;11.24;100.00;99541.47;5020535;28;20026;-80
2023/03/24 00:15:27;;;;;;;13.30;6.30;;;;;;;11.21;100.00;99536.34;5020725;28;20052;-79
2023/03/24 00:17:56;;;;;;;16.00;7.68;;;;;;;11.23;100.00;99533.56;5019799;28;20053;-78
2023/03/24 00:20:25;;;;;;;15.73;6.50;;;;;;;11.24;100.00;99535.28;5021973;28;20038;-82
2023/03/24 00:22:57;;;;;;;15.90;6.63;;;;;;;11.26;100.00;99536.00;5020361;28;20125;-81
2023/03/24 00:25:27;;;;;;;15.60;6.63;;;;;;;11.27;100.00;99535.00;5019513;28;20030;-81
2023/03/24 00:27:56;;;;;;;13.25;6.70;;;;;;;11.28;100.00;99528.72;5030141;28;20056;-82
2023/03/24 00:30:23;;;;;;;13.73;6.38;;;;;;;11.27;100.00;99521.66;5020635;28;20038;-81
2023/03/24 00:32:50;;;;;;;17.77;7.43;;;;;;;11.26;100.00;99517.31;5028026;28;20073;-81
2023/03/24 00:35:17;;;;;;;13.05;6.38;;;;;;;11.27;100.00;99507.47;5010651;28;20402;-81
2023/03/24 00:37:45;;;;;;;15.10;6.35;;;;;;;11.28;100.00;99509.16;5024493;28;20041;-83
2023/03/24 00:40:30;;;;;;;17.05;6.78;;;;;;;11.32;100.00;99521.31;5022600;28;20026;-81
2023/03/24 00:42:58;;;;;;;13.95;6.43;;;;;;;11.31;100.00;99514.25;5008376;28;20084;-79
2023/03/24 00:45:24;;;;;;;15.75;6.72;;;;;;;11.31;100.00;99504.41;5020227;28;20033;-78
2023/03/24 00:47:52;;;;;;;13.55;7.22;;;;;;;11.34;100.00;99508.66;5022977;28;20037;-81
2023/03/24 00:50:25;;;;;;;11.48;6.28;;;;;;;11.34;100.00;99476.59;5024254;28;20041;-78
2023/03/24 00:52:52;;;;;;;17.45;6.55;;;;;;;11.38;100.00;99488.75;5012073;28;20071;-79
2023/03/24 00:55:20;;;;;;;11.82;6.28;;;;;;;11.40;100.00;99497.47;5026764;28;20121;-80
2023/03/24 00:57:50;;;;;;;11.05;5.90;;;;;;;11.47;100.00;99479.97;5026302;28;20128;-80
2023/03/24 01:00:19;;;;;;;12.43;5.60;;;;;;;11.48;100.00;99457.66;5039815;28;20111;-79
2023/03/24 01:02:52;;;;;;;12.07;5.82;;;;;;;11.53;100.00;99465.28;5026684;28;20498;-83
2023/03/24 01:05:20;;;;;;;14.20;5.88;;;;;;;11.57;100.00;99462.25;5010665;28;20529;-81
2023/03/24 01:07:50;;;;;;;15.23;6.85;;;;;;;11.57;100.00;99472.94;5009466;28;20505;-81
2023/03/24 01:10:18;;;;;;;;;;;;;;;11.60;100.00;99482.50;5025899;28;20112;-81
2023/03/24 01:12:45;;;;;;;13.73;6.20;;;;;;;11.53;100.00;99474.13;5012430;28;19917;-79
2023/03/24 01:15:17;;;;;;;15.45;6.78;;;;;;;11.50;100.00;99458.38;5027931;28;20041;-79
2023/03/24 01:17:45;;;;;;;13.68;6.70;;;;;;;11.47;100.00;99463.94;5024948;28;20025;-74
2023/03/24 01:20:13;;;;;;;11.20;6.43;;;;;;;11.49;100.00;99451.31;5040182;28;20040;-78
2023/03/24 01:22:43;;;;;;;12.40;6.47;;;;;;;11.50;100.00;99450.34;5020040;28;20345;-76
2023/03/24 01:25:16;;;;;;;11.65;6.78;;;;;;;11.53;100.00;99452.75;5023842;28;20032;-75
2023/03/24 01:27:44;;;;;;;11.02;6.30;;;;;;;11.51;100.00;99436.00;5027640;28;20037;-81
2023/03/24 01:30:13;;;;;;;14.10;7.05;;;;;;;11.54;100.00;99445.59;5022845;28;20030;-76
2023/03/24 01:32:39;;;;;;;11.00;6.32;;;;;;;11.51;100.00;99427.97;5022200;28;20040;-80
2023/03/24 01:35:06;;;;;;;11.57;7.13;;;;;;;11.54;100.00;99435.75;5019550;28;20037;-79
2023/03/24 01:37:33;;;;;;;11.93;6.80;;;;;;;11.53;100.00;99420.69;5018992;28;20431;-76
2023/03/24 01:39:59;;;;;;;9.90;6.10;;;;;;;11.55;100.00;99439.28;5022478;28;20076;-77
2023/03/24 01:42:27;;;;;;;13.95;6.20;;;;;;;11.57;100.00;99438.19;5019346;28;20064;-75
2023/03/24 01:45:21;;;;;;;11.38;6.43;;;;;;;11.58;100.00;99429.19;5023253;28;20032;-81
2023/03/24 01:47:48;;;;;;;11.65;6.68;;;;;;;11.59;100.00;99424.66;5024069;28;20025;-80
2023/03/24 01:50:14;;;;;;;12.88;6.15;;;;;;;11.60;100.00;99421.88;5009237;28;20080;-76
2023/03/24 01:52:41;;;;;;;15.18;7.03;;;;;;;11.62;100.00;99419.91;5019634;28;20064;-77
2023/03/24 01:55:14;;;;;;;9.95;7.00;;;;;;;11.63;100.00;99434.16;5022967;28;20034;-74
2023/03/24 01:57:46;;;;;;;9.05;6.07;;;;;;;11.65;100.00;99429.53;5008455;28;20033;-76
2023/03/24 02:00:17;;;;;;;11.10;7.32;;;;;;;11.65;100.00;99426.84;5024268;28;20033;-77
2023/03/24 02:03:09;;;;;;;14.38;7.40;;;;;;;11.67;100.00;99427.56;5001949;28;20240;-76
2023/03/24 02:05:45;;;;;;;15.02;7.68;;;;;;;11.64;100.00;99417.97;5008240;28;20021;-80
2023/03/24 02:08:29;;;;;;;12.05;7.15;;;;;;;11.64;100.00;99426.00;5027388;28;20053;-79
2023/03/24 02:10:56;;;;;;;13.73;7.40;;;;;;;11.63;100.00;99429.66;5005800;28;20564;-82
2023/03/24 02:13:30;;;;;;;14.10;7.95;;;;;;;11.60;100.00;99445.94;5019828;28;20406;-80
2023/03/24 02:16:17;;;;;;;17.08;8.73;;;;;;;11.62;100.00;99481.41;5008239;28;20040;-76
2023/03/24 02:19:11;;;;;;;11.73;9.25;;;;;;;11.62;100.00;99485.91;5019725;28;20172;-75
2023/03/24 02:22:14;;;;;;;11.73;8.35;;;;;;;11.61;100.00;99490.41;5009176;28;20073;-77
2023/03/24 02:25:17;;;;;;;11.68;7.72;;;;;;;11.59;100.00;99491.50;5025698;28;20045;-76
2023/03/24 02:27:52;;;;;;;9.88;6.53;;;;;;;11.49;100.00;99494.06;5014739;28;20034;-76
2023/03/24 02:30:39;;;;;;;8.15;5.30;;;;;;;11.41;100.00;99491.19;5036510;28;20038;-74
2023/03/24 02:33:27;;;;;;;8.60;5.07;;;;;;;11.38;100.00;99494.09;5019511;28;20514;-74
2023/03/24 02:35:58;;;;;;;8.30;3.90;;;;;;;11.31;100.00;99527.59;5007182;28;20062;-77
2023/03/24 02:38:33;;;;;;;9.13;3.50;;;;;;;11.25;100.00;99529.78;5017792;28;20096;-76
2023/03/24 02:41:11;;;;;;;6.13;2.53;;;;;;;11.22;100.00;99539.91;5019774;28;20033;-77
2023/03/24 02:43:54;;;;;;;7.60;2.45;;;;;;;11.10;100.00;99530.16;5005966;28;20048;-77
2023/03/24 02:46:43;;;;;;;11.88;2.95;;;;;;;10.96;100.00;99548.13;5020545;28;20413;-74
2023/03/24 02:49:18;;;;;;;10.77;2.40;;;;;;;10.89;100.00;99546.06;5018555;28;20049;-76
2023/03/24 02:51:47;;;;;;;11.15;3.38;;;;;;;10.80;100.00;99547.59;5034516;28;20041;-75
2023/03/24 02:54:43;;;;;;;10.02;2.53;;;;;;;10.74;100.00;99543.59;5015716;28;20503;-74
2023/03/24 02:57:20;;;;;;;14.88;3.00;;;;;;;10.63;100.00;99551.56;5031264;28;20096;-76
2023/03/24 03:00:29;;;;;;;10.73;3.08;;;;;;;10.55;100.00;99562.81;5031533;28;20059;-75
2023/03/24 03:03:18;;;;;;;12.40;2.47;;;;;;;10.49;100.00;99573.94;5016640;28;20068;-76
2023/03/24 03:06:04;;;;;;;14.02;3.72;;;;;;;10.46;100.00;99577.69;5005125;28;20026;-74
2023/03/24 03:08:33;;;;;;;12.15;2.95;;;;;;;10.41;100.00;99590.53;5003982;28;20045;-76
2023/03/24 03:11:02;;;;;;;13.50;2.85;;;;;;;10.38;100.00;99573.91;5019312;28;20034;-76
2023/03/24 03:14:00;;;;;;;13.57;2.97;;;;;;;10.37;100.00;99581.06;5021349;28;20033;-78
2023/03/24 03:16:44;;;;;;;11.40;3.05;;;;;;;10.33;100.00;99586.75;5003491;28;20114;-75
2023/03/24 03:19:17;;;;;;;18.02;3.28;;;;;;;10.26;100.00;99579.16;5034642;28;20520;-75
2023/03/24 03:21:47;;;;;;;17.05;3.55;;;;;;;10.20;100.00;99592.09;5012613;28;20037;-76
2023/03/24 03:24:18;;;;;;;15.68;2.67;;;;;;;10.11;100.00;99611.44;5015834;28;20551;-75
2023/03/24 03:26:47;;;;;;;13.68;3.13;;;;;;;10.03;100.00;99607.53;5005275;28;20029;-76
2023/03/24 03:29:22;;;;;;;16.83;2.65;;;;;;;9.95;100.00;99599.22;5006020;28;20119;-75
2023/03/24 03:32:20;;;;;;;22.98;3.80;;;;;;;9.88;100.00;99605.97;4998004;28;20522;-75
2023/03/24 03:35:07;;;;;;;15.40;3.00;;;;;;;9.81;100.00;99610.03;4999051;28;20380;-76
2023/03/24 03:38:08;;;;;;;18.90;2.60;;;;;;;9.82;100.00;99617.06;5022372;28;20039;-76
2023/03/24 03:40:39;;;;;;;18.45;3.33;;;;;;;9.78;100.00;99623.59;5019707;28;20065;-76
2023/03/24 03:43:16;;;;;;;23.90;4.65;;;;;;;9.78;100.00;99623.59;4998792;28;20029;-76
2023/03/24 03:45:42;;;;;;;17.10;3.50;;;;;;;9.76;100.00;99626.34;5034743;28;20049;-75
2023/03/24 03:48:09;;;;;;;17.40;3.83;;;;;;;9.67;100.00;99627.88;5012706;28;20553;-75
2023/03/24 03:50:37;;;;;;;20.33;4.50;;;;;;;9.62;100.00;99640.69;5007762;28;20033;-76
2023/03/24 03:53:07;;;;;;;23.55;3.85;;;;;;;9.56;100.00;99635.78;5017438;28;20098;-76
2023/03/24 03:55:34;;;;;;;20.35;3.58;;;;;;;9.54;100.00;99632.34;5028508;28;20041;-76
2023/03/24 03:58:03;;;;;;;16.75;3.63;;;;;;;9.52;100.00;99650.25;5026921;28;20041;-76
2023/03/24 04:00:43;;;;;;;17.80;4.45;;;;;;;9.48;100.00;99651.44;5016617;28;20026;-75
2023/03/24 04:04:06;;;;;;;15.95;3.90;;;;;;;9.45;100.00;99656.97;5017685;28;20076;-74
2023/03/24 04:06:52;;;;;;;19.58;3.20;;;;;;;9.44;100.00;99657.94;5023126;28;20087;-77
2023/03/24 04:09:32;;;;;;;15.80;3.97;;;;;;;9.45;100.00;99660.50;5026840;28;20034;-74
2023/03/24 04:12:15;;;;;;;18.05;3.28;;;;;;;9.52;100.00;99655.59;5021001;28;20045;-74
2023/03/24 04:14:58;;;;;;;12.18;3.95;;;;;;;9.53;100.00;99661.78;5012302;28;20045;-76
2023/03/24 04:18:09;;;;;;;16.55;4.15;;;;;;;9.58;100.00;99660.50;5006883;28;20037;-74
2023/03/24 04:21:19;;;;;;;19.98;3.38;;;;;;;9.64;100.00;99669.88;5013383;28;20048;-74
2023/03/24 04:24:07;;;;;;;21.17;3.45;;;;;;;9.62;100.00;99677.97;5022551;28;20037;-75
2023/03/24 04:26:55;;;;;;;25.13;4.28;;;;;;;9.66;100.00;99679.47;5012296;28;20437;-75
2023/03/24 04:29:30;;;;;;;16.00;3.47;;;;;;;9.68;100.00;99688.19;5000655;28;20037;-77
2023/03/24 04:32:18;;;;;;;21.30;4.00;;;;;;;9.67;100.00;99694.50;5024365;28;20128;-77
2023/03/24 04:34:49;;;;;;;16.08;4.43;;;;;;;9.64;100.00;99704.53;5004585;28;20064;-75
2023/03/24 04:37:41;;;;;;;20.17;4.75;;;;;;;9.56;100.00;99696.19;5012639;28;20184;-76
2023/03/24 04:40:16;;;;;;;22.88;4.18;;;;;;;9.55;100.00;99694.50;5007018;28;20052;-76
2023/03/24 04:42:51;;;;;;;19.45;4.20;;;;;;;9.58;100.00;99692.47;4992045;28;20042;-76
2023/03/24 04:45:24;;;;;;;21.52;4.90;;;;;;;9.62;100.00;99696.63;5007035;28;20493;-75
2023/03/24 04:48:17;;;;;;;21.88;5.10;;;;;;;9.67;100.00;99715.81;4993956;28;20037;-74
2023/03/24 04:51:11;;;;;;;25.05;4.25;;;;;;;9.66;100.00;99706.09;5011718;28;20050;-78
2023/03/24 04:54:00;;;;;;;31.05;5.80;;;;;;;9.68;100.00;99714.84;5015272;28;20042;-76
2023/03/24 04:56:48;;;;;;;23.83;4.30;;;;;;;9.74;100.00;99723.38;5021193;28;20174;-77
2023/03/24 04:59:30;;;;;;;27.48;6.18;;;;;;;9.73;100.00;99721.66;5011398;28;20037;-74
2023/03/24 05:01:57;;;;;;;29.38;4.82;;;;;;;9.70;100.00;99733.41;5005960;28;20042;-76
2023/03/24 05:04:42;;;;;;;30.67;5.60;;;;;;;9.65;100.00;99741.72;5008221;28;20076;-75
2023/03/24 05:07:23;;;;;;;;;;;;;;;9.66;100.00;99745.25;5010852;28;20466;-74
2023/03/24 05:09:55;;;;;;;;;;;;;;;9.63;100.00;99746.28;5006337;28;20487;-75
2023/03/24 05:12:21;;;;;;;25.88;4.53;;;;;;;9.54;100.00;99744.25;5022630;28;19944;-78
2023/03/24 05:15:17;;;;;;;40.60;7.60;;;;;;;9.47;100.00;99750.97;5003241;28;20054;-75
2023/03/24 05:17:46;;;;;;;29.08;5.53;;;;;;;9.38;100.00;99748.94;4989782;28;20144;-75
2023/03/24 05:20:14;;;;;;;27.00;5.13;;;;;;;9.30;100.00;99762.78;5008174;28;20041;-75
2023/03/24 05:22:44;;;;;;;34.83;6.80;;;;;;;9.21;100.00;99764.25;5015641;28;20059;-74
2023/03/24 05:25:10;;;;;;;25.80;4.47;;;;;;;9.12;100.00;99767.53;5006835;28;20619;-75
2023/03/24 05:27:37;;;;;;;25.63;4.13;;;;;;;9.09;100.00;99767.72;5021751;28;20114;-74
2023/03/24 05:30:15;;;;;;;28.73;4.68;;;;;;;9.08;100.00;99779.34;4998389;28;20037;-74
2023/03/24 05:32:42;;;;;;;28.17;5.55;;;;;;;9.04;100.00;99777.81;4995057;28;20076;-73
2023/03/24 05:35:09;;;;;;;29.48;4.88;;;;;;;9.04;100.00;99780.47;5018337;28;20041;-75
2023/03/24 05:37:35;;;;;;;31.67;4.72;;;;;;;9.04;100.00;99769.81;5008334;28;20057;-77
2023/03/24 05:40:03;;;;;;;40.25;5.13;;;;;;;9.09;100.00;99786.34;5020654;28;20048;-74
2023/03/24 05:42:44;;;;;;;37.55;5.25;;;;;;;9.16;100.00;99789.47;5016151;28;20254;-74
2023/03/24 05:45:11;;;;;;;44.28;7.55;;;;;;;9.22;100.00;99786.41;4988439;28;20413;-74
2023/03/24 05:47:40;;;;;;;34.20;5.10;;;;;;;9.27;100.00;99793.13;5003995;28;20132;-76
2023/03/24 05:50:07;;;;;;;34.78;5.43;;;;;;;9.32;100.00;99783.03;5019199;28;20045;-75
2023/03/24 05:52:34;;;;;;;26.17;6.03;;;;;;;9.37;100.00;99785.34;5023396;28;20481;-76
2023/03/24 05:55:30;;;;;;;30.73;5.30;;;;;;;9.43;100.00;99784.97;5012414;28;20045;-75
2023/03/24 05:58:04;;;;;;;38.85;5.65;;;;;;;9.44;100.00;99801.78;5001895;28;20450;-75
2023/03/24 06:00:39;;;;;;;31.17;5.03;;;;;;;9.45;100.00;99790.16;5035539;28;20037;-76
2023/03/24 06:03:12;;;;;;;36.55;5.25;;;;;;;9.51;100.00;99797.75;5034137;28;20179;-74
2023/03/24 06:05:48;;;;;;;38.83;5.88;;;;;;;9.53;100.00;99795.84;5008870;28;20129;-76
2023/03/24 06:08:15;;;;;;;38.53;5.63;;;;;;;9.57;100.00;99808.00;5024757;28;20259;-74
2023/03/24 06:10:42;;;;;;;34.67;5.72;;;;;;;9.60;100.00;99804.25;5031771;28;20510;-82
2023/03/24 06:13:09;;;;;;;40.85;5.50;;;;;;;9.60;100.00;99802.47;5027181;28;20039;-84
2023/03/24 06:15:41;;;;;;;31.08;5.00;;;;;;;9.62;100.00;99816.53;5005634;28;20040;-87
2023/03/24 06:18:29;;;;;;;33.22;6.10;;;;;;;9.65;100.00;99816.34;5010224;28;20037;-75
2023/03/24 06:20:58;;;;;;;31.02;6.50;;;;;;;9.67;100.00;99809.09;5019859;28;20583;-81
2023/03/24 06:23:28;;;;;;;26.23;4.75;;;;;;;9.72;100.00;99814.09;5018870;28;20418;-82
2023/03/24 06:26:10;;;;;;;26.25;4.95;;;;;;;9.57;100.00;99786.69;5002166;28;20459;-84
2023/03/24 06:28:44;;;;;;;31.80;5.40;;;;;;;9.82;100.00;99822.31;5021094;28;20140;-85
2023/03/24 06:31:19;;;;;;;24.55;4.13;;;;;;;9.81;100.00;99820.63;5024417;28;20056;-86
2023/03/24 06:33:47;;;;;;;32.83;5.18;;;;;;;9.82;100.00;99811.66;5007798;28;20128;-83
2023/03/24 06:36:15;;;;;;;33.83;5.53;;;;;;;9.87;100.00;99815.69;5007484;28;20187;-80
2023/03/24 06:38:43;;;;;;;29.92;4.40;;;;;;;9.94;100.00;99820.63;5020795;28;20056;-83
2023/03/24 06:41:10;;;;;;;32.33;4.93;;;;;;;9.99;100.00;99824.69;5002186;28;20120;-81
2023/03/24 06:43:37;;;;;;;25.02;5.32;;;;;;;10.04;100.00;99832.34;5009608;28;20038;-83
2023/03/24 06:46:04;;;;;;;29.20;4.53;;;;;;;10.05;100.00;99845.56;5011989;28;20038;-83
2023/03/24 06:48:32;;;;;;;22.75;4.40;;;;;;;10.07;100.00;99845.47;5032406;28;20060;-75
2023/03/24 06:51:02;;;;;;;38.08;5.25;;;;;;;10.12;100.00;99850.47;5019923;28;20088;-75
2023/03/24 06:53:29;;;;;;;29.05;5.30;;;;;;;10.13;100.00;99849.53;4979323;28;20042;-76
2023/03/24 06:55:55;;;;;;;35.65;4.95;;;;;;;10.17;100.00;99853.69;5025566;28;20187;-76
2023/03/24 06:58:24;;;;;;;35.80;5.93;;;;;;;10.25;100.00;99864.66;4986651;28;20114;-75
2023/03/24 07:01:05;;;;;;;;;;;;;;;10.32;100.00;99873.97;5019720;28;20050;-75
2023/03/24 07:04:04;;;;;;;26.60;3.88;;;;;;;10.34;100.00;99877.38;5015549;28;19921;-76
2023/03/24 07:07:03;;;;;;;25.95;4.70;;;;;;;10.36;100.00;99878.16;4996467;28;20042;-75
2023/03/24 07:09:31;;;;;;;25.77;4.75;;;;;;;10.38;100.00;99881.56;5004501;28;20371;-73
2023/03/24 07:11:57;;;;;;;24.48;4.10;;;;;;;10.37;100.00;99879.84;5019490;28;20033;-75
2023/03/24 07:14:25;;;;;;;30.40;5.22;;;;;;;10.44;100.00;99890.97;5004834;28;20120;-74
2023/03/24 07:16:52;;;;;;;35.65;4.72;;;;;;;10.48;100.00;99890.63;5008716;28;20499;-74
2023/03/24 07:19:41;;;;;;;20.05;4.35;;;;;;;10.53;100.00;99893.00;5010443;28;20045;-73
2023/03/24 07:22:31;;;;;;;30.10;5.85;;;;;;;10.57;100.00;99896.31;5037185;28;20525;-75
2023/03/24 07:25:19;;;;;;;26.58;4.20;;;;;;;10.55;100.00;99885.72;5038758;28;20087;-76
2023/03/24 07:27:55;;;;;;;30.20;4.22;;;;;;;10.53;100.00;99889.44;5035325;28;20562;-79
2023/03/24 07:30:22;;;;;;;20.60;3.63;;;;;;;10.63;100.00;99901.19;5029070;28;20026;-86
2023/03/24 07:32:49;;;;;;;34.50;4.78;;;;;;;10.79;100.00;99890.25;5023615;28;20033;-81
2023/03/24 07:35:17;;;;;;;29.77;5.18;;;;;;;10.96;100.00;99895.25;4996830;28;20029;-81
2023/03/24 07:37:43;;;;;;;26.08;5.03;;;;;;;11.15;100.00;99904.63;5002087;28;20045;-80
2023/03/24 07:40:11;;;;;;;30.50;5.47;;;;;;;11.16;100.00;99900.97;5022575;28;20501;-83
2023/03/24 07:42:40;;;;;;;22.30;4.10;;;;;;;11.09;100.00;99905.91;5017329;28;20053;-81
2023/03/24 07:45:27;;;;;;;25.33;5.85;;;;;;;10.93;100.00;99884.78;4998855;28;21674;-82
2023/03/24 07:47:56;;;;;;;26.42;4.95;;;;;;;11.21;100.00;99914.84;5009677;28;20029;-82
2023/03/24 07:50:22;;;;;;;24.38;4.05;;;;;;;11.24;100.00;99912.81;5001088;28;20038;-80
2023/03/24 07:52:49;;;;;;;26.38;5.68;;;;;;;11.31;100.00;99910.53;5026144;28;20044;-81
2023/03/24 07:55:18;;;;;;;25.08;5.82;;;;;;;11.41;100.00;99911.56;5007458;28;20037;-82
2023/03/24 07:58:10;;;;;;;20.25;4.43;;;;;;;11.57;100.00;99927.34;5015548;28;20069;-84
2023/03/24 08:00:41;;;;;;;23.75;4.68;;;;;;;11.80;100.00;99927.44;5012791;28;20503;-81
2023/03/24 08:03:24;;;;;;;27.25;5.10;;;;;;;11.92;100.00;99936.38;5010531;28;20099;-81
2023/03/24 08:06:09;;;;;;;21.50;4.05;;;;;;;11.90;100.00;99936.47;5027317;28;20209;-82
2023/03/24 08:08:43;;;;;;;24.60;4.60;;;;;;;12.12;100.00;99932.19;5024863;28;20041;-81
2023/03/24 08:11:09;;;;;;;26.50;4.88;;;;;;;12.24;100.00;99958.00;5002325;28;20042;-83
2023/03/24 08:13:35;;;;;;;30.33;4.63;;;;;;;12.29;100.00;99955.81;5015124;28;20040;-82
2023/03/24 08:16:03;;;;;;;27.45;4.03;;;;;;;12.37;100.00;99955.22;5027345;28;20481;-81
2023/03/24 08:18:33;;;;;;;21.02;4.03;;;;;;;12.40;100.00;99958.53;5026490;28;20037;-82
2023/03/24 08:21:01;;;;;;;22.50;4.45;;;;;;;12.33;100.00;99959.97;5021882;28;20045;-84
2023/03/24 08:23:27;;;;;;;20.60;4.07;;;;;;;12.54;100.00;99951.25;5026378;28;20036;-81
2023/03/24 08:25:54;;;;;;;27.55;3.97;;;;;;;12.71;100.00;99956.16;5004209;28;20080;-82
2023/03/24 08:28:20;;;;;;;16.10;3.92;;;;;;;12.73;100.00;99958.69;5022403;28;20029;-84
2023/03/24 08:30:47;;;;;;;22.13;3.92;;;;;;;12.84;100.00;99950.69;5029743;28;20038;-83
2023/03/24 08:33:15;;;;;;;22.75;3.80;;;;;;;13.23;100.00;99966.34;5031766;28;20045;-81
2023/03/24 08:35:41;;;;;;;23.90;4.68;;;;;;;13.62;100.00;99961.44;5038672;28;20370;-81
2023/03/24 08:38:10;;;;;;;29.38;4.38;;;;;;;14.12;100.00;99961.75;5030447;28;20049;-80
2023/03/24 08:40:38;;;;;;;24.52;5.45;;;;;;;14.35;100.00;99976.75;5027653;28;20091;-81
2023/03/24 08:43:09;;;;;;;22.48;4.40;;;;;;;14.75;100.00;99971.66;5020394;28;20060;-83
2023/03/24 08:45:36;;;;;;;18.65;4.20;;;;;;;14.34;100.00;99980.41;5020898;28;20037;-82
2023/03/24 08:48:05;;;;;;;23.55;3.63;;;;;;;14.59;100.00;99972.97;5029892;28;20061;-85
2023/03/24 08:50:38;;;;;;;19.52;4.78;;;;;;;14.92;100.00;99976.41;5027993;28;20048;-87
2023/03/24 08:53:04;;;;;;;17.38;3.75;;;;;;;15.41;100.00;99985.50;5021285;28;20038;-85
2023/03/24 08:55:31;;;;;;;22.75;3.72;;;;;;;15.51;100.00;99988.22;5013057;28;20033;-83
2023/03/24 08:57:57;;;;;;;22.88;4.43;;;;;;;15.42;100.00;99981.84;5023138;28;20053;-79
2023/03/24 09:00:25;;;;;;;19.67;3.70;;;;;;;15.16;100.00;99996.75;5004421;28;20045;-82
2023/03/24 09:02:53;;;;;;;18.83;4.78;;;;;;;14.47;100.00;99990.13;5022628;28;20045;-81
2023/03/24 09:05:20;;;;;;;25.48;3.95;;;;;;;13.69;100.00;99986.78;5029476;28;20029;-83
2023/03/24 09:07:48;;;;;;;16.92;5.07;;;;;;;13.16;100.00;100001.69;5022858;28;20034;-82
2023/03/24 09:10:16;;;;;;;23.52;4.28;;;;;;;12.81;100.00;99999.13;5024256;28;20049;-85
2023/03/24 09:12:43;;;;;;;21.85;4.25;;;;;;;12.58;100.00;100008.94;5045120;28;20061;-86
2023/03/24 09:15:11;;;;;;;23.08;4.45;;;;;;;12.29;100.00;100009.34;5013460;28;20083;-81
2023/03/24 09:17:39;;;;;;;21.92;4.50;;;;;;;12.09;100.00;100012.69;5007523;28;20034;-85
2023/03/24 09:20:10;;;;;;;25.63;5.25;;;;;;;11.94;100.00;100018.19;5008226;28;20044;-86
2023/03/24 09:22:41;;;;;;;25.60;5.13;;;;;;;12.06;100.00;100012.88;5020897;28;20052;-83
2023/03/24 09:25:10;;;;;;;19.55;4.63;;;;;;;12.86;100.00;100014.81;5024173;28;20433;-83
2023/03/24 09:27:36;;;;;;;18.55;4.82;;;;;;;14.02;100.00;100022.56;5024736;28;20033;-83
2023/03/24 09:30:03;;;;;;;19.42;3.60;;;;;;;15.10;100.00;100019.66;5021117;28;20030;-82
2023/03/24 09:32:30;;;;;;;15.75;3.80;;;;;;;15.00;100.00;100022.25;5023085;28;20029;-82
2023/03/24 09:34:56;;;;;;;31.30;5.22;;;;;;;14.24;100.00;100014.41;5007834;28;20103;-81
2023/03/24 09:37:22;;;;;;;20.27;3.70;;;;;;;14.39;100.00;100027.50;5007981;28;20033;-80
2023/03/24 09:39:49;;;;;;;17.58;3.88;;;;;;;14.23;100.00;100020.75;5007190;28;20087;-87
2023/03/24 09:42:21;;;;;;;18.13;3.85;;;;;;;14.71;100.00;100036.41;5028555;28;20033;-87
2023/03/24 09:44:53;;;;;;;19.33;3.45;;;;;;;14.63;100.00;100027.28;5005645;28;20099;-86
2023/03/24 09:47:44;;;;;;;13.43;3.45;;;;;;;15.23;100.00;100008.66;5023424;28;20099;-86
2023/03/24 09:50:23;;;;;;;17.85;3.28;;;;;;;15.60;100.00;100034.97;5023238;28;20037;-83
2023/03/24 09:52:54;;;;;;;15.25;2.85;;;;;;;15.68;100.00;100035.97;5024691;28;20029;-83
2023/03/24 09:55:24;;;;;;;15.27;3.20;;;;;;;15.39;100.00;100009.00;5003555;28;20521;-83
2023/03/24 09:57:52;;;;;;;17.20;3.20;;;;;;;16.17;100.00;100025.31;5021539;28;20030;-81
2023/03/24 10:00:25;;;;;;;15.73;3.10;;;;;;;16.13;100.00;100058.91;5023525;28;20119;-84
2023/03/24 10:02:52;;;;;;;20.50;3.58;;;;;;;15.83;100.00;100049.94;5025388;28;20119;-81
2023/03/24 10:05:39;;;;;;;16.55;2.78;;;;;;;16.10;100.00;100056.47;5020214;28;20124;-82
2023/03/24 10:08:32;;;;;;;20.40;4.03;;;;;;;16.56;100.00;100049.56;5018693;28;20033;-80
2023/03/24 10:11:14;;;;;;;26.20;3.97;;;;;;;16.40;100.00;100060.06;5017198;28;20056;-79
2023/03/24 10:13:59;;;;;;;18.45;3.15;;;;;;;16.01;100.00;100057.31;5021263;28;20044;-80
2023/03/24 10:16:28;;;;;;;20.13;3.15;;;;;;;15.23;100.00;100057.06;5024101;28;20034;-85
2023/03/24 10:19:09;;;;;;;17.10;3.10;;;;;;;15.53;100.00;100047.28;5021267;28;20038;-81
2023/03/24 10:21:37;;;;;;;18.02;3.10;;;;;;;14.77;100.00;100061.03;5021127;28;20026;-81
2023/03/24 10:24:26;;;;;;;19.05;3.20;;;;;;;14.42;100.00;100046.03;5021457;28;20030;-84
2023/03/24 10:26:59;;;;;;;25.58;3.55;;;;;;;14.06;100.00;100042.78;5006303;28;20030;-80
2023/03/24 10:29:37;;;;;;;20.40;2.80;;;;;;;13.49;100.00;100048.28;5020366;28;20037;-82
2023/03/24 10:32:19;;;;;;;21.55;3.63;;;;;;;13.17;100.00;100043.59;5039065;28;20513;-81
2023/03/24 10:34:49;;;;;;;20.25;3.35;;;;;;;12.80;100.00;100046.50;5029667;28;20470;-82
2023/03/24 10:37:16;;;;;;;23.27;3.35;;;;;;;12.63;100.00;100044.25;5032394;28;20045;-82
2023/03/24 10:39:43;;;;;;;20.88;4.57;;;;;;;12.93;100.00;100050.88;4997227;28;20037;-84
2023/03/24 10:42:14;;;;;;;24.17;4.63;;;;;;;13.63;100.00;100052.50;5029008;28;20100;-85
2023/03/24 10:44:41;;;;;;;14.05;3.38;;;;;;;14.02;100.00;100052.06;5024040;28;20029;-81
2023/03/24 10:47:11;;;;;;;19.98;3.30;;;;;;;13.91;100.00;100043.06;5020805;28;20135;-82
2023/03/24 10:49:37;;;;;;;16.33;2.87;;;;;;;13.76;100.00;100049.69;5019827;28;20037;-81
2023/03/24 10:52:09;;;;;;;20.55;3.38;;;;;;;13.84;100.00;100047.22;5003128;28;20033;-80
2023/03/24 10:54:36;;;;;;;20.00;3.40;;;;;;;13.40;100.00;100049.00;5018795;28;20547;-81
2023/03/24 10:57:04;;;;;;;16.02;3.22;;;;;;;13.17;100.00;100046.25;4993563;28;20045;-80
2023/03/24 10:59:35;;;;;;;18.35;3.95;;;;;;;13.05;100.00;100049.94;5035646;28;20061;-81
2023/03/24 11:02:22;;;;;;;15.20;3.38;;;;;;;13.04;100.00;100050.03;5002921;28;20038;-81
2023/03/24 11:05:09;;;;;;;16.40;3.00;;;;;;;13.02;100.00;100060.88;5028609;28;20156;-85
2023/03/24 11:07:37;;;;;;;15.95;3.45;;;;;;;13.00;100.00;100062.81;5030811;28;20044;-82
2023/03/24 11:10:06;;;;;;;13.73;3.22;;;;;;;12.92;100.00;100059.91;5012998;28;20061;-81
2023/03/24 11:12:35;;;;;;;17.70;3.28;;;;;;;12.91;100.00;100060.88;5016557;28;20103;-84
2023/03/24 11:15:18;;;;;;;23.63;4.68;;;;;;;12.93;100.00;100061.59;5019908;28;20087;-81
2023/03/24 11:17:45;;;;;;;20.00;3.97;;;;;;;13.02;100.00;100060.88;5030973;28;20498;-83
2023/03/24 11:20:17;;;;;;;17.35;3.35;;;;;;;13.06;100.00;100056.13;5028786;28;20034;-81
2023/03/24 11:22:56;;;;;;;18.95;3.45;;;;;;;12.91;100.00;100058.19;5009839;28;20765;-84
2023/03/24 11:25:29;;;;;;;14.48;3.95;;;;;;;12.73;100.00;100064.00;5021556;28;20071;-84
2023/03/24 11:27:59;;;;;;;17.25;3.03;;;;;;;12.80;100.00;100067.03;5031210;28;20037;-84
2023/03/24 11:30:31;;;;;;;16.73;3.53;;;;;;;13.00;100.00;100065.50;5034293;28;20052;-84
2023/03/24 11:32:58;;;;;;;18.23;3.40;;;;;;;13.43;100.00;100069.34;5012072;28;20053;-82
2023/03/24 11:35:24;;;;;;;17.48;3.15;;;;;;;13.55;100.00;100066.53;5014111;28;20038;-84
2023/03/24 11:37:51;;;;;;;20.80;3.70;;;;;;;13.63;100.00;100067.75;5005233;28;20368;-81
2023/03/24 11:40:20;;;;;;;19.33;3.25;;;;;;;13.62;100.00;100068.72;5013730;28;20141;-82
2023/03/24 11:42:49;;;;;;;17.95;3.58;;;;;;;13.58;100.00;100073.47;5026108;28;20095;-86
2023/03/24 11:45:28;;;;;;;19.02;3.00;;;;;;;13.51;100.00;100065.09;5014770;28;20104;-81
2023/03/24 11:47:58;;;;;;;19.85;3.17;;;;;;;14.00;100.00;100065.59;5013205;28;20025;-84
2023/03/24 11:50:34;;;;;;;15.80;2.70;;;;;;;14.78;100.00;100065.41;5023281;28;20112;-83